sensor_id;sensor_type;location;lat;lon;timestamp;pressure;altitude;pressure_sealevel;temperature;humidity
62617;BME280;62539;51.190;6.808;2022-10-16T00:00:41;100832.72;;;20.50;59.33
62617;BME280;62539;51.190;6.808;2022-10-16T00:03:08;100832.72;;;20.50;59.37
62617;BME280;62539;51.190;6.808;2022-10-16T00:05:40;100828.38;;;20.49;59.57
62617;BME280;62539;51.190;6.808;2022-10-16T00:08:07;100831.00;;;20.49;59.31
62617;BME280;62539;51.190;6.808;2022-10-16T00:10:34;100845.06;;;20.50;59.26
62617;BME280;62539;51.190;6.808;2022-10-16T00:13:00;100839.00;;;20.48;59.43
62617;BME280;62539;51.190;6.808;2022-10-16T00:15:25;100833.72;;;20.48;59.30
62617;BME280;62539;51.190;6.808;2022-10-16T00:17:51;100839.91;;;20.47;59.35
62617;BME280;62539;51.190;6.808;2022-10-16T00:20:16;100856.56;;;20.47;59.47
62617;BME280;62539;51.190;6.808;2022-10-16T00:22:42;100854.00;;;20.46;59.46
62617;BME280;62539;51.190;6.808;2022-10-16T00:25:07;100855.78;;;20.45;59.47
62617;BME280;62539;51.190;6.808;2022-10-16T00:27:33;100848.78;;;20.44;59.38
62617;BME280;62539;51.190;6.808;2022-10-16T00:29:59;100850.50;;;20.45;59.38
62617;BME280;62539;51.190;6.808;2022-10-16T00:32:24;100848.78;;;20.44;59.29
62617;BME280;62539;51.190;6.808;2022-10-16T00:34:50;100852.34;;;20.43;59.51
62617;BME280;62539;51.190;6.808;2022-10-16T00:37:15;100841.81;;;20.43;59.56
62617;BME280;62539;51.190;6.808;2022-10-16T00:39:40;100841.81;;;20.43;59.51
62617;BME280;62539;51.190;6.808;2022-10-16T00:42:06;100836.53;;;20.43;59.47
62617;BME280;62539;51.190;6.808;2022-10-16T00:47:17;100836.66;;;20.40;59.40
62617;BME280;62539;51.190;6.808;2022-10-16T00:49:47;100837.53;;;20.40;59.49
62617;BME280;62539;51.190;6.808;2022-10-16T00:52:16;100830.56;;;20.39;59.29
62617;BME280;62539;51.190;6.808;2022-10-16T00:54:43;100826.13;;;20.40;59.23
62617;BME280;62539;51.190;6.808;2022-10-16T00:57:11;100821.78;;;20.39;59.49
62617;BME280;62539;51.190;6.808;2022-10-16T00:59:39;100829.69;;;20.39;59.40
62617;BME280;62539;51.190;6.808;2022-10-16T01:02:08;100837.59;;;20.39;59.28
62617;BME280;62539;51.190;6.808;2022-10-16T01:04:39;100834.94;;;20.39;59.45
62617;BME280;62539;51.190;6.808;2022-10-16T01:07:30;100830.72;;;20.35;59.36
62617;BME280;62539;51.190;6.808;2022-10-16T01:13:41;100844.78;;;20.35;59.38
62617;BME280;62539;51.190;6.808;2022-10-16T01:16:17;100847.56;;;20.31;59.42
62617;BME280;62539;51.190;6.808;2022-10-16T01:19:05;100853.63;;;20.33;59.17
62617;BME280;62539;51.190;6.808;2022-10-16T01:21:50;100852.72;;;20.34;59.46
62617;BME280;62539;51.190;6.808;2022-10-16T01:24:48;100856.53;;;20.26;59.29
62617;BME280;62539;51.190;6.808;2022-10-16T01:27:26;100860.81;;;20.29;59.41
62617;BME280;62539;51.190;6.808;2022-10-16T01:30:11;100847.56;;;20.31;59.07
62617;BME280;62539;51.190;6.808;2022-10-16T01:32:50;100847.69;;;20.27;59.24
62617;BME280;62539;51.190;6.808;2022-10-16T01:35:36;100845.19;;;20.24;59.29
62617;BME280;62539;51.190;6.808;2022-10-16T01:38:21;100843.44;;;20.25;59.32
62617;BME280;62539;51.190;6.808;2022-10-16T01:41:00;100844.16;;;20.29;59.13
62617;BME280;62539;51.190;6.808;2022-10-16T01:43:37;100840.72;;;20.26;59.11
62617;BME280;62539;51.190;6.808;2022-10-16T01:46:08;100845.03;;;20.29;59.14
62617;BME280;62539;51.190;6.808;2022-10-16T01:48:35;100845.88;;;20.30;59.38
62617;BME280;62539;51.190;6.808;2022-10-16T01:51:08;100853.88;;;20.26;59.26
62617;BME280;62539;51.190;6.808;2022-10-16T01:53:38;100859.94;;;20.29;59.09
62617;BME280;62539;51.190;6.808;2022-10-16T01:56:08;100860.81;;;20.29;59.28
62617;BME280;62539;51.190;6.808;2022-10-16T01:58:41;100859.94;;;20.29;59.18
62617;BME280;62539;51.190;6.808;2022-10-16T02:01:13;100853.75;;;20.30;59.30
62617;BME280;62539;51.190;6.808;2022-10-16T02:03:43;100853.75;;;20.30;59.05
62617;BME280;62539;51.190;6.808;2022-10-16T02:06:11;100853.75;;;20.30;59.11
62617;BME280;62539;51.190;6.808;2022-10-16T02:08:38;100851.13;;;20.30;58.96
62617;BME280;62539;51.190;6.808;2022-10-16T02:11:05;100851.13;;;20.30;59.21
62617;BME280;62539;51.190;6.808;2022-10-16T02:13:38;100852.97;;;20.27;59.19
62617;BME280;62539;51.190;6.808;2022-10-16T02:16:15;100856.41;;;20.30;59.02
62617;BME280;62539;51.190;6.808;2022-10-16T02:18:42;100855.56;;;20.29;59.25
62617;BME280;62539;51.190;6.808;2022-10-16T02:21:19;100864.44;;;20.26;59.11
62617;BME280;62539;51.190;6.808;2022-10-16T02:26:53;100874.16;;;20.24;59.16
62617;BME280;62539;51.190;6.808;2022-10-16T02:29:28;100867.06;;;20.26;59.07
62617;BME280;62539;51.190;6.808;2022-10-16T02:32:01;100866.22;;;20.26;59.11
62617;BME280;62539;51.190;6.808;2022-10-16T02:34:31;100870.63;;;20.25;59.14
62617;BME280;62539;51.190;6.808;2022-10-16T02:37:00;100871.53;;;20.24;59.10
62617;BME280;62539;51.190;6.808;2022-10-16T02:39:28;100874.13;;;20.26;59.24
62617;BME280;62539;51.190;6.808;2022-10-16T02:41:55;100875.88;;;20.25;58.92
62617;BME280;62539;51.190;6.808;2022-10-16T02:44:20;100874.13;;;20.26;59.14
62617;BME280;62539;51.190;6.808;2022-10-16T02:46:46;100866.25;;;20.24;58.96
62617;BME280;62539;51.190;6.808;2022-10-16T02:49:11;100861.00;;;20.24;59.23
62617;BME280;62539;51.190;6.808;2022-10-16T02:51:36;100857.56;;;20.22;59.03
62617;BME280;62539;51.190;6.808;2022-10-16T02:54:02;100856.66;;;20.23;58.96
62617;BME280;62539;51.190;6.808;2022-10-16T02:56:28;100863.72;;;20.23;58.93
62617;BME280;62539;51.190;6.808;2022-10-16T02:58:55;100873.38;;;20.22;58.99
62617;BME280;62539;51.190;6.808;2022-10-16T03:01:20;100869.81;;;20.23;59.01
62617;BME280;62539;51.190;6.808;2022-10-16T03:03:46;100868.06;;;20.24;59.11
62617;BME280;62539;51.190;6.808;2022-10-16T03:06:11;100878.63;;;20.22;59.07
62617;BME280;62539;51.190;6.808;2022-10-16T03:08:37;100878.63;;;20.22;59.15
62617;BME280;62539;51.190;6.808;2022-10-16T03:11:02;100870.75;;;20.22;59.08
62617;BME280;62539;51.190;6.808;2022-10-16T03:13:27;100866.34;;;20.23;59.02
62617;BME280;62539;51.190;6.808;2022-10-16T03:15:53;100862.84;;;20.22;58.83
62617;BME280;62539;51.190;6.808;2022-10-16T03:18:18;100865.47;;;20.22;58.83
62617;BME280;62539;51.190;6.808;2022-10-16T03:20:44;100864.63;;;20.22;59.07
62617;BME280;62539;51.190;6.808;2022-10-16T03:23:09;100858.50;;;20.21;58.87
62617;BME280;62539;51.190;6.808;2022-10-16T03:25:35;100857.66;;;20.21;59.00
62617;BME280;62539;51.190;6.808;2022-10-16T03:28:00;100871.66;;;20.21;59.16
62617;BME280;62539;51.190;6.808;2022-10-16T03:30:26;100869.91;;;20.22;58.92
62617;BME280;62539;51.190;6.808;2022-10-16T03:32:52;100868.19;;;20.21;58.70
62617;BME280;62539;51.190;6.808;2022-10-16T03:35:21;100869.03;;;20.21;58.92
62617;BME280;62539;51.190;6.808;2022-10-16T03:37:47;100877.84;;;20.20;58.89
62617;BME280;62539;51.190;6.808;2022-10-16T03:40:14;100871.66;;;20.21;59.10
62617;BME280;62539;51.190;6.808;2022-10-16T03:42:40;100876.91;;;20.21;58.82
62617;BME280;62539;51.190;6.808;2022-10-16T03:45:07;100873.44;;;20.21;58.94
62617;BME280;62539;51.190;6.808;2022-10-16T03:47:32;100861.19;;;20.20;58.86
62617;BME280;62539;51.190;6.808;2022-10-16T03:49:59;100868.19;;;20.21;59.01
62617;BME280;62539;51.190;6.808;2022-10-16T03:52:24;100877.84;;;20.20;58.89
62617;BME280;62539;51.190;6.808;2022-10-16T03:54:50;100880.47;;;20.20;58.75
62617;BME280;62539;51.190;6.808;2022-10-16T03:57:15;100875.28;;;20.19;58.69
62617;BME280;62539;51.190;6.808;2022-10-16T03:59:41;100887.53;;;20.20;58.88
62617;BME280;62539;51.190;6.808;2022-10-16T04:02:06;100889.28;;;20.19;58.74
62617;BME280;62539;51.190;6.808;2022-10-16T04:04:32;100896.41;;;20.17;58.80
62617;BME280;62539;51.190;6.808;2022-10-16T04:06:57;100896.34;;;20.19;58.99
62617;BME280;62539;51.190;6.808;2022-10-16T04:09:23;100895.47;;;20.18;58.96
62617;BME280;62539;51.190;6.808;2022-10-16T04:11:48;100892.84;;;20.18;58.88
62617;BME280;62539;51.190;6.808;2022-10-16T04:14:13;100895.47;;;20.18;58.73
62617;BME280;62539;51.190;6.808;2022-10-16T04:16:39;100906.94;;;20.17;58.63
62617;BME280;62539;51.190;6.808;2022-10-16T04:19:04;100906.03;;;20.18;58.62
62617;BME280;62539;51.190;6.808;2022-10-16T04:21:30;100910.44;;;20.18;59.00
62617;BME280;62539;51.190;6.808;2022-10-16T04:23:55;100922.75;;;20.17;58.66
62617;BME280;62539;51.190;6.808;2022-10-16T04:26:20;100925.38;;;20.17;58.70
62617;BME280;62539;51.190;6.808;2022-10-16T04:28:46;100928.94;;;20.16;58.88
62617;BME280;62539;51.190;6.808;2022-10-16T04:31:11;100934.19;;;20.16;58.74
62617;BME280;62539;51.190;6.808;2022-10-16T04:33:37;100928.00;;;20.17;58.55
62617;BME280;62539;51.190;6.808;2022-10-16T04:36:03;100933.34;;;20.16;58.85
62617;BME280;62539;51.190;6.808;2022-10-16T04:38:29;100935.91;;;20.17;58.49
62617;BME280;62539;51.190;6.808;2022-10-16T04:40:55;100928.94;;;20.16;58.90
62617;BME280;62539;51.190;6.808;2022-10-16T04:43:20;100926.38;;;20.15;58.58
62617;BME280;62539;51.190;6.808;2022-10-16T04:45:46;100914.97;;;20.14;58.68
62617;BME280;62539;51.190;6.808;2022-10-16T04:48:12;100918.50;;;20.13;58.71
62617;BME280;62539;51.190;6.808;2022-10-16T04:50:37;100925.50;;;20.14;58.75
62617;BME280;62539;51.190;6.808;2022-10-16T04:53:03;100935.19;;;20.14;58.91
62617;BME280;62539;51.190;6.808;2022-10-16T04:55:28;100941.31;;;20.14;58.85
62617;BME280;62539;51.190;6.808;2022-10-16T04:57:53;100953.56;;;20.15;58.85
62617;BME280;62539;51.190;6.808;2022-10-16T05:00:19;100958.81;;;20.15;59.04
62617;BME280;62539;51.190;6.808;2022-10-16T05:02:45;100955.28;;;20.16;58.70
62617;BME280;62539;51.190;6.808;2022-10-16T05:05:10;100951.72;;;20.17;58.96
62617;BME280;62539;51.190;6.808;2022-10-16T05:07:36;100957.84;;;20.18;58.92
62617;BME280;62539;51.190;6.808;2022-10-16T05:10:02;100957.84;;;20.18;58.73
62617;BME280;62539;51.190;6.808;2022-10-16T05:12:27;100956.06;;;20.18;58.71
62617;BME280;62539;51.190;6.808;2022-10-16T05:14:53;100956.06;;;20.18;59.20
62617;BME280;62539;51.190;6.808;2022-10-16T05:17:23;100963.97;;;20.18;58.88
62617;BME280;62539;51.190;6.808;2022-10-16T05:19:49;100968.31;;;20.19;58.66
62617;BME280;62539;51.190;6.808;2022-10-16T05:22:15;100976.22;;;20.19;58.67
62617;BME280;62539;51.190;6.808;2022-10-16T05:24:40;100981.50;;;20.19;58.80
62617;BME280;62539;51.190;6.808;2022-10-16T05:27:05;100991.19;;;20.19;58.76
62617;BME280;62539;51.190;6.808;2022-10-16T05:29:31;100988.53;;;20.19;58.91
62617;BME280;62539;51.190;6.808;2022-10-16T05:31:56;100979.78;;;20.18;58.92
62617;BME280;62539;51.190;6.808;2022-10-16T05:34:22;100980.66;;;20.19;58.80
62617;BME280;62539;51.190;6.808;2022-10-16T05:36:47;100976.22;;;20.19;58.90
62617;BME280;62539;51.190;6.808;2022-10-16T05:39:14;100982.38;;;20.20;58.64
62617;BME280;62539;51.190;6.808;2022-10-16T05:41:40;100991.97;;;20.21;58.47
62617;BME280;62539;51.190;6.808;2022-10-16T05:44:06;100997.28;;;20.19;58.72
62617;BME280;62539;51.190;6.808;2022-10-16T05:46:32;101002.53;;;20.21;58.83
62617;BME280;62539;51.190;6.808;2022-10-16T05:48:58;101011.25;;;20.21;58.59
62617;BME280;62539;51.190;6.808;2022-10-16T05:51:23;101006.00;;;20.21;58.42
62617;BME280;62539;51.190;6.808;2022-10-16T05:53:49;101011.25;;;20.21;58.56
62617;BME280;62539;51.190;6.808;2022-10-16T05:56:14;101011.25;;;20.21;58.52
62617;BME280;62539;51.190;6.808;2022-10-16T05:58:41;101016.53;;;20.21;58.43
62617;BME280;62539;51.190;6.808;2022-10-16T06:01:10;101012.97;;;20.22;58.31
62617;BME280;62539;51.190;6.808;2022-10-16T06:03:38;101021.81;;;20.21;58.54
62617;BME280;62539;51.190;6.808;2022-10-16T06:06:08;101035.88;;;20.20;58.51
62617;BME280;62539;51.190;6.808;2022-10-16T06:08:37;101031.53;;;20.19;58.73
62617;BME280;62539;51.190;6.808;2022-10-16T06:11:05;101025.34;;;20.20;58.45
62617;BME280;62539;51.190;6.808;2022-10-16T06:13:32;101043.00;;;20.18;58.47
62617;BME280;62539;51.190;6.808;2022-10-16T06:15:59;101038.53;;;20.20;58.45
62617;BME280;62539;51.190;6.808;2022-10-16T06:18:26;101034.16;;;20.19;58.53
62617;BME280;62539;51.190;6.808;2022-10-16T06:20:53;101036.81;;;20.19;58.38
62617;BME280;62539;51.190;6.808;2022-10-16T06:23:19;101043.78;;;20.20;58.43
62617;BME280;62539;51.190;6.808;2022-10-16T06:25:45;101044.72;;;20.19;58.45
62617;BME280;62539;51.190;6.808;2022-10-16T06:28:10;101043.78;;;20.20;58.48
62617;BME280;62539;51.190;6.808;2022-10-16T06:30:36;101045.63;;;20.18;58.82
62617;BME280;62539;51.190;6.808;2022-10-16T06:33:01;101038.59;;;20.19;58.50
62617;BME280;62539;51.190;6.808;2022-10-16T06:35:27;101039.44;;;20.19;58.43
62617;BME280;62539;51.190;6.808;2022-10-16T06:37:54;101036.81;;;20.19;58.44
62617;BME280;62539;51.190;6.808;2022-10-16T06:40:19;101055.25;;;20.19;58.45
62617;BME280;62539;51.190;6.808;2022-10-16T06:42:45;101062.22;;;20.20;58.43
62617;BME280;62539;51.190;6.808;2022-10-16T06:45:10;101065.78;;;20.19;58.52
62617;BME280;62539;51.190;6.808;2022-10-16T06:47:36;101071.94;;;20.20;58.75
62617;BME280;62539;51.190;6.808;2022-10-16T06:50:02;101081.59;;;20.19;58.46
62617;BME280;62539;51.190;6.808;2022-10-16T06:52:28;101074.59;;;20.18;58.50
62617;BME280;62539;51.190;6.808;2022-10-16T06:54:54;101086.84;;;20.19;58.46
62617;BME280;62539;51.190;6.808;2022-10-16T06:57:19;101095.66;;;20.18;58.69
62617;BME280;62539;51.190;6.808;2022-10-16T06:59:45;101084.28;;;20.18;58.53
62617;BME280;62539;51.190;6.808;2022-10-16T07:02:10;101096.59;;;20.17;58.60
62617;BME280;62539;51.190;6.808;2022-10-16T07:04:36;101098.25;;;20.20;58.36
62617;BME280;62539;51.190;6.808;2022-10-16T07:07:02;101106.16;;;20.20;58.62
62617;BME280;62539;51.190;6.808;2022-10-16T07:09:27;101113.19;;;20.19;58.48
62617;BME280;62539;51.190;6.808;2022-10-16T07:11:53;101112.28;;;20.20;58.62
62617;BME280;62539;51.190;6.808;2022-10-16T07:14:20;101112.28;;;20.20;58.83
62617;BME280;62539;51.190;6.808;2022-10-16T07:16:47;101114.91;;;20.20;58.52
62617;BME280;62539;51.190;6.808;2022-10-16T07:19:14;101119.34;;;20.20;58.80
62617;BME280;62539;51.190;6.808;2022-10-16T07:21:40;101115.78;;;20.21;58.62
62617;BME280;62539;51.190;6.808;2022-10-16T07:24:11;101120.19;;;20.20;58.74
62617;BME280;62539;51.190;6.808;2022-10-16T07:26:43;101130.72;;;20.20;58.58
62617;BME280;62539;51.190;6.808;2022-10-16T07:29:15;101138.63;;;20.20;58.85
62617;BME280;62539;51.190;6.808;2022-10-16T07:31:42;101142.97;;;20.21;58.71
62617;BME280;62539;51.190;6.808;2022-10-16T07:34:08;101146.53;;;20.20;58.74
62617;BME280;62539;51.190;6.808;2022-10-16T07:36:34;101142.97;;;20.21;58.95
62617;BME280;62539;51.190;6.808;2022-10-16T07:39:00;101149.13;;;20.22;59.02
62617;BME280;62539;51.190;6.808;2022-10-16T07:41:25;101150.88;;;20.21;58.95
62617;BME280;62539;51.190;6.808;2022-10-16T07:43:52;101157.88;;;20.22;58.70
62617;BME280;62539;51.190;6.808;2022-10-16T07:46:21;101156.94;;;20.23;58.79
62617;BME280;62539;51.190;6.808;2022-10-16T07:48:48;101160.50;;;20.22;58.77
62617;BME280;62539;51.190;6.808;2022-10-16T07:51:15;101167.50;;;20.23;58.85
62617;BME280;62539;51.190;6.808;2022-10-16T07:53:43;101178.03;;;20.23;58.79
62617;BME280;62539;51.190;6.808;2022-10-16T07:56:09;101174.47;;;20.24;58.77
62617;BME280;62539;51.190;6.808;2022-10-16T07:58:36;101172.66;;;20.26;58.77
62617;BME280;62539;51.190;6.808;2022-10-16T08:01:07;101180.50;;;20.28;58.54
62617;BME280;62539;51.190;6.808;2022-10-16T08:03:34;101184.00;;;20.29;58.70
62617;BME280;62539;51.190;6.808;2022-10-16T08:06:00;101185.69;;;20.31;58.77
62617;BME280;62539;51.190;6.808;2022-10-16T08:08:27;101188.13;;;20.36;58.41
62617;BME280;62539;51.190;6.808;2022-10-16T08:10:53;101188.94;;;20.38;58.32
62617;BME280;62539;51.190;6.808;2022-10-16T08:13:18;101191.47;;;20.41;58.64
62617;BME280;62539;51.190;6.808;2022-10-16T08:15:45;101194.88;;;20.45;58.52
62617;BME280;62539;51.190;6.808;2022-10-16T08:18:12;101203.50;;;20.48;58.31
62617;BME280;62539;51.190;6.808;2022-10-16T08:20:40;101205.13;;;20.52;58.08
62617;BME280;62539;51.190;6.808;2022-10-16T08:23:07;101208.44;;;20.58;58.02
62617;BME280;62539;51.190;6.808;2022-10-16T08:25:35;101220.56;;;20.63;57.82
62617;BME280;62539;51.190;6.808;2022-10-16T08:28:05;101219.47;;;20.69;57.77
62617;BME280;62539;51.190;6.808;2022-10-16T08:30:31;101217.59;;;20.73;57.67
62617;BME280;62539;51.190;6.808;2022-10-16T08:32:57;101223.50;;;20.79;57.32
62617;BME280;62539;51.190;6.808;2022-10-16T08:35:23;101221.56;;;20.84;57.56
62617;BME280;62539;51.190;6.808;2022-10-16T08:37:49;101225.81;;;20.89;57.45
62617;BME280;62539;51.190;6.808;2022-10-16T08:40:26;101239.88;;;20.89;57.29
62617;BME280;62539;51.190;6.808;2022-10-16T08:43:28;101235.44;;;20.90;57.50
62617;BME280;62539;51.190;6.808;2022-10-16T08:48:50;101238.38;;;21.06;57.02
62617;BME280;62539;51.190;6.808;2022-10-16T08:51:21;101244.34;;;21.11;56.83
62617;BME280;62539;51.190;6.808;2022-10-16T08:53:55;101245.94;;;21.15;56.74
62617;BME280;62539;51.190;6.808;2022-10-16T08:56:23;101256.22;;;21.21;56.93
62617;BME280;62539;51.190;6.808;2022-10-16T08:58:51;101254.34;;;21.25;56.82
62617;BME280;62539;51.190;6.808;2022-10-16T09:01:20;101258.59;;;21.29;56.74
62617;BME280;62539;51.190;6.808;2022-10-16T09:06:58;101251.38;;;21.34;56.80
62617;BME280;62539;51.190;6.808;2022-10-16T09:09:54;101258.28;;;21.37;57.12
62617;BME280;62539;51.190;6.808;2022-10-16T09:18:10;101271.19;;;21.44;56.90
62617;BME280;62539;51.190;6.808;2022-10-16T09:20:49;101269.41;;;21.45;57.00
62617;BME280;62539;51.190;6.808;2022-10-16T09:23:29;101278.13;;;21.47;57.11
62617;BME280;62539;51.190;6.808;2022-10-16T09:25:59;101277.16;;;21.50;56.55
62617;BME280;62539;51.190;6.808;2022-10-16T09:28:25;101280.59;;;21.52;56.53
62617;BME280;62539;51.190;6.808;2022-10-16T09:30:51;101292.00;;;21.52;56.54
62617;BME280;62539;51.190;6.808;2022-10-16T09:33:19;101278.81;;;21.52;56.61
62617;BME280;62539;51.190;6.808;2022-10-16T09:35:53;101287.53;;;21.54;56.36
62617;BME280;62539;51.190;6.808;2022-10-16T09:38:35;101285.00;;;21.51;56.56
62617;BME280;62539;51.190;6.808;2022-10-16T09:41:02;101287.06;;;21.43;57.05
62617;BME280;62539;51.190;6.808;2022-10-16T09:43:40;101289.34;;;21.52;56.50
62617;BME280;62539;51.190;6.808;2022-10-16T09:48:54;101294.59;;;21.54;57.01
62617;BME280;62539;51.190;6.808;2022-10-16T09:51:37;101289.44;;;21.51;56.79
62617;BME280;62539;51.190;6.808;2022-10-16T09:56:33;101287.72;;;21.50;57.02
62617;BME280;62539;51.190;6.808;2022-10-16T09:59:18;101284.50;;;21.41;56.93
62617;BME280;62539;51.190;6.808;2022-10-16T10:01:51;101295.41;;;21.32;55.87
62617;BME280;62539;51.190;6.808;2022-10-16T10:04:19;101293.50;;;21.36;55.52
62617;BME280;62539;51.190;6.808;2022-10-16T10:06:49;101291.88;;;21.33;54.89
62617;BME280;62539;51.190;6.808;2022-10-16T10:09:35;101290.16;;;21.32;54.78
62617;BME280;62539;51.190;6.808;2022-10-16T10:12:05;101288.44;;;21.31;55.23
62617;BME280;62539;51.190;6.808;2022-10-16T10:14:44;101286.69;;;21.30;55.54
62617;BME280;62539;51.190;6.808;2022-10-16T10:17:18;101295.53;;;21.29;56.04
62617;BME280;62539;51.190;6.808;2022-10-16T10:33:58;101290.69;;;21.18;56.66
62617;BME280;62539;51.190;6.808;2022-10-16T10:36:52;101291.63;;;21.15;56.15
62617;BME280;62539;51.190;6.808;2022-10-16T10:39:38;101282.63;;;21.21;56.44
62617;BME280;62539;51.190;6.808;2022-10-16T10:42:25;101289.69;;;21.21;56.84
62617;BME280;62539;51.190;6.808;2022-10-16T10:48:04;101283.50;;;21.22;56.90
62617;BME280;62539;51.190;6.808;2022-10-16T10:50:47;101295.53;;;21.29;56.92
62617;BME280;62539;51.190;6.808;2022-10-16T10:53:48;101292.94;;;21.27;56.81
62617;BME280;62539;51.190;6.808;2022-10-16T10:56:50;101306.31;;;21.23;56.75
62617;BME280;62539;51.190;6.808;2022-10-16T10:59:47;101304.59;;;21.22;56.98
62617;BME280;62539;51.190;6.808;2022-10-16T11:02:32;101309.75;;;21.25;56.84
62617;BME280;62539;51.190;6.808;2022-10-16T11:05:23;101307.25;;;21.22;56.92
62617;BME280;62539;51.190;6.808;2022-10-16T11:08:09;101309.94;;;21.20;57.18
62617;BME280;62539;51.190;6.808;2022-10-16T11:10:53;101313.31;;;21.24;57.19
62617;BME280;62539;51.190;6.808;2022-10-16T11:13:31;101318.47;;;21.27;56.91
62617;BME280;62539;51.190;6.808;2022-10-16T11:16:23;101321.94;;;21.29;57.24
62617;BME280;62539;51.190;6.808;2022-10-16T11:19:52;101325.38;;;21.31;57.21
62617;BME280;62539;51.190;6.808;2022-10-16T11:22:23;101312.78;;;21.38;57.03
62617;BME280;62539;51.190;6.808;2022-10-16T11:27:40;101320.34;;;21.47;56.64
62617;BME280;62539;51.190;6.808;2022-10-16T11:30:18;101316.69;;;21.51;56.46
62617;BME280;62539;51.190;6.808;2022-10-16T11:41:13;101315.16;;;21.46;56.83
62617;BME280;62539;51.190;6.808;2022-10-16T11:43:52;101321.22;;;21.48;56.87
62617;BME280;62539;51.190;6.808;2022-10-16T11:46:28;101332.50;;;21.51;56.85
62617;BME280;62539;51.190;6.808;2022-10-16T11:49:31;101335.22;;;21.50;56.80
62617;BME280;62539;51.190;6.808;2022-10-16T11:52:21;101333.28;;;21.55;56.69
62617;BME280;62539;51.190;6.808;2022-10-16T11:55:14;101334.75;;;21.62;56.62
62617;BME280;62539;51.190;6.808;2022-10-16T11:58:08;101328.59;;;21.63;56.56
62617;BME280;62539;51.190;6.808;2022-10-16T12:03:56;101329.47;;;21.62;56.50
62617;BME280;62539;51.190;6.808;2022-10-16T12:06:37;101326.63;;;21.68;56.13
62617;BME280;62539;51.190;6.808;2022-10-16T12:09:22;101332.59;;;21.73;56.12
62617;BME280;62539;51.190;6.808;2022-10-16T12:11:51;101332.34;;;21.80;56.03
62617;BME280;62539;51.190;6.808;2022-10-16T12:14:21;101329.75;;;21.78;55.83
62617;BME280;62539;51.190;6.808;2022-10-16T12:16:57;101335.00;;;21.80;55.97
62617;BME280;62539;51.190;6.808;2022-10-16T12:19:27;101332.28;;;21.81;55.92
62617;BME280;62539;51.190;6.808;2022-10-16T12:22:00;101325.13;;;21.85;56.02
62617;BME280;62539;51.190;6.808;2022-10-16T12:24:37;101329.34;;;21.89;56.05
62617;BME280;62539;51.190;6.808;2022-10-16T12:27:23;101326.19;;;21.79;56.24
62617;BME280;62539;51.190;6.808;2022-10-16T12:29:57;101329.50;;;21.84;56.23
62617;BME280;62539;51.190;6.808;2022-10-16T12:32:36;101319.16;;;21.80;56.38
62617;BME280;62539;51.190;6.808;2022-10-16T12:35:05;101323.38;;;21.84;56.13
62617;BME280;62539;51.190;6.808;2022-10-16T12:37:44;101317.97;;;21.87;56.12
62617;BME280;62539;51.190;6.808;2022-10-16T12:40:26;101307.41;;;21.87;55.50
62617;BME280;62539;51.190;6.808;2022-10-16T12:42:54;101316.81;;;21.94;55.37
62617;BME280;62539;51.190;6.808;2022-10-16T12:45:29;101319.59;;;21.91;55.48
62617;BME280;62539;51.190;6.808;2022-10-16T12:47:59;101318.59;;;21.94;55.32
62617;BME280;62539;51.190;6.808;2022-10-16T12:50:32;101317.88;;;21.90;55.26
62617;BME280;62539;51.190;6.808;2022-10-16T12:53:00;101314.34;;;21.90;55.61
62617;BME280;62539;51.190;6.808;2022-10-16T12:55:35;101323.28;;;21.87;55.68
62617;BME280;62539;51.190;6.808;2022-10-16T12:58:43;101333.03;;;21.85;55.57
62617;BME280;62539;51.190;6.808;2022-10-16T13:01:53;101323.28;;;21.87;55.58
62617;BME280;62539;51.190;6.808;2022-10-16T13:10:36;101313.31;;;21.94;55.32
62617;BME280;62539;51.190;6.808;2022-10-16T13:13:16;101313.19;;;21.97;55.22
62617;BME280;62539;51.190;6.808;2022-10-16T13:21:43;101340.78;;;22.12;55.05
62617;BME280;62539;51.190;6.808;2022-10-16T13:24:42;101333.81;;;22.09;54.44
62617;BME280;62539;51.190;6.808;2022-10-16T13:27:35;101332.16;;;22.07;54.72
62617;BME280;62539;51.190;6.808;2022-10-16T13:30:20;101336.22;;;22.15;54.28
62617;BME280;62539;51.190;6.808;2022-10-16T13:33:04;101325.47;;;22.20;54.58
62617;BME280;62539;51.190;6.808;2022-10-16T13:35:34;101330.50;;;22.26;54.43
62617;BME280;62539;51.190;6.808;2022-10-16T13:40:56;101342.00;;;22.25;54.79
62617;BME280;62539;51.190;6.808;2022-10-16T13:43:41;101335.53;;;22.32;54.52
62617;BME280;62539;51.190;6.808;2022-10-16T13:46:15;101331.84;;;22.37;54.62
62617;BME280;62539;51.190;6.808;2022-10-16T13:48:59;101334.53;;;22.35;54.63
62617;BME280;62539;51.190;6.808;2022-10-16T13:51:26;101327.38;;;22.37;54.32
62617;BME280;62539;51.190;6.808;2022-10-16T13:53:54;101328.25;;;22.38;54.37
62617;BME280;62539;51.190;6.808;2022-10-16T13:56:22;101335.28;;;22.39;54.60
62617;BME280;62539;51.190;6.808;2022-10-16T13:58:59;101340.69;;;22.36;54.39
62617;BME280;62539;51.190;6.808;2022-10-16T14:01:44;101342.53;;;22.34;54.41
62617;BME280;62539;51.190;6.808;2022-10-16T14:04:11;101349.41;;;22.38;54.20
62617;BME280;62539;51.190;6.808;2022-10-16T14:06:44;101334.53;;;22.35;54.32
62617;BME280;62539;51.190;6.808;2022-10-16T14:09:23;101345.19;;;22.34;54.34
62617;BME280;62539;51.190;6.808;2022-10-16T14:11:54;101345.22;;;22.32;54.01
62617;BME280;62539;51.190;6.808;2022-10-16T14:14:23;101360.25;;;22.31;54.15
62617;BME280;62539;51.190;6.808;2022-10-16T14:16:50;101356.81;;;22.29;54.19
62617;BME280;62539;51.190;6.808;2022-10-16T14:19:25;101359.56;;;22.26;53.97
62617;BME280;62539;51.190;6.808;2022-10-16T14:21:53;101342.78;;;22.27;54.47
62617;BME280;62539;51.190;6.808;2022-10-16T14:24:34;101321.91;;;22.21;54.33